createdAt,value
2016-11-24T00:00:09.567Z,4
2016-11-24T00:01:21.542Z,4
2016-11-24T00:04:17.686Z,4
2016-11-24T00:07:46.494Z,4
2016-11-24T00:08:58.902Z,4
2016-11-24T00:10:11.915Z,0
2016-11-24T00:11:24.960Z,0
2016-11-24T00:12:37.415Z,0
2016-11-24T00:13:49.948Z,0
2016-11-24T00:15:02.423Z,0
2016-11-24T00:16:14.947Z,0
2016-11-24T00:17:28.543Z,0
2016-11-24T00:19:12.689Z,0
2016-11-24T00:20:25.161Z,0
2016-11-24T00:21:38.214Z,0
2016-11-24T00:22:51.228Z,0
2016-11-24T00:24:34.871Z,0
2016-11-24T00:25:46.772Z,0
2016-11-24T00:26:59.865Z,0
2016-11-24T00:28:11.284Z,0
2016-11-24T00:29:23.211Z,0
2016-11-24T00:30:36.276Z,0
2016-11-24T00:31:49.886Z,0
2016-11-24T00:33:02.870Z,0
2016-11-24T00:34:20.445Z,0
2016-11-24T00:35:33.440Z,0
2016-11-24T00:36:45.435Z,0
2016-11-24T00:37:57.903Z,0
2016-11-24T00:39:11.486Z,0
2016-11-24T00:40:25.096Z,0
2016-11-24T00:41:37.578Z,0
2016-11-24T00:42:50.644Z,0
2016-11-24T00:44:03.191Z,0
2016-11-24T00:45:15.687Z,0
2016-11-24T00:46:29.244Z,0
2016-11-24T00:47:42.273Z,0
2016-11-24T00:48:54.813Z,0
2016-11-24T00:50:07.333Z,0
2016-11-24T00:51:19.808Z,0
2016-11-24T00:52:32.791Z,0
2016-11-24T00:53:45.781Z,0
2016-11-24T00:54:58.810Z,0
2016-11-24T00:56:24.640Z,0
2016-11-24T00:57:38.235Z,0
2016-11-24T00:58:51.272Z,0
2016-11-24T01:00:03.755Z,0
2016-11-24T01:01:16.215Z,0
2016-11-24T01:02:29.197Z,0
2016-11-24T01:03:42.176Z,0
2016-11-24T01:04:55.695Z,0
2016-11-24T01:06:08.184Z,0
2016-11-24T01:07:20.672Z,0
2016-11-24T01:08:34.205Z,0
2016-11-24T01:10:18.296Z,0
2016-11-24T01:13:45.094Z,0
2016-11-24T01:14:58.095Z,0
2016-11-24T01:16:10.536Z,0
2016-11-24T01:17:54.644Z,0
2016-11-24T01:19:07.126Z,0
2016-11-24T01:20:20.621Z,0
2016-11-24T01:21:33.686Z,0
2016-11-24T01:22:46.765Z,0
2016-11-24T01:24:00.364Z,0
2016-11-24T01:25:13.374Z,0
2016-11-24T01:26:26.931Z,0
2016-11-24T01:27:39.975Z,0
2016-11-24T01:28:53.517Z,0
2016-11-24T01:30:06.502Z,0
2016-11-24T01:31:18.488Z,0
2016-11-24T01:32:31.012Z,0
2016-11-24T01:33:44.478Z,0
2016-11-24T01:34:57.531Z,0
2016-11-24T01:36:10.050Z,0
2016-11-24T01:37:54.215Z,0
2016-11-24T01:39:07.752Z,0
2016-11-24T01:40:20.734Z,0
2016-11-24T01:41:33.763Z,0
2016-11-24T01:42:47.235Z,0
2016-11-24T01:43:59.682Z,0
2016-11-24T01:45:12.716Z,0
2016-11-24T01:46:57.431Z,0
2016-11-24T01:48:11.062Z,0
2016-11-24T01:49:24.630Z,0
2016-11-24T01:50:37.621Z,0
2016-11-24T01:51:50.083Z,0
2016-11-24T01:53:03.043Z,0
2016-11-24T01:54:16.023Z,0
2016-11-24T01:55:29.108Z,0
2016-11-24T01:56:42.066Z,0
2016-11-24T01:57:55.059Z,0
2016-11-24T01:59:08.086Z,0
2016-11-24T02:00:20.057Z,0
2016-11-24T02:01:32.533Z,0
2016-11-24T02:02:45.547Z,0
2016-11-24T02:03:58.001Z,0
2016-11-24T02:05:10.517Z,0
2016-11-24T02:06:54.092Z,0
2016-11-24T02:08:07.117Z,0
2016-11-24T02:09:19.624Z,0
2016-11-24T02:11:03.793Z,0
2016-11-24T02:12:16.816Z,0
2016-11-24T02:13:29.860Z,0
2016-11-24T02:14:42.336Z,0
2016-11-24T02:15:55.307Z,0
2016-11-24T02:17:07.738Z,0
2016-11-24T02:18:20.722Z,0
2016-11-24T02:19:33.790Z,0
2016-11-24T02:20:46.250Z,0
2016-11-24T02:21:58.784Z,0
2016-11-24T02:23:11.766Z,0
2016-11-24T02:24:23.726Z,0
2016-11-24T02:25:36.767Z,0
2016-11-24T02:26:50.296Z,0
2016-11-24T02:28:03.354Z,0
2016-11-24T02:29:15.260Z,0
2016-11-24T02:30:28.339Z,0
2016-11-24T02:31:39.795Z,0
2016-11-24T02:32:52.806Z,0
2016-11-24T02:34:05.782Z,0
2016-11-24T02:35:17.732Z,0
2016-11-24T02:36:31.214Z,0
2016-11-24T02:37:44.214Z,0
2016-11-24T02:38:56.704Z,0
2016-11-24T02:40:09.181Z,0
2016-11-24T02:41:22.219Z,0
2016-11-24T02:42:34.741Z,0
2016-11-24T02:43:48.309Z,0
2016-11-24T02:45:01.314Z,0
2016-11-24T02:46:13.882Z,0
2016-11-24T02:47:26.875Z,0
2016-11-24T02:48:39.342Z,0
2016-11-24T02:49:50.795Z,0
2016-11-24T02:51:03.262Z,0
2016-11-24T02:52:14.746Z,0
2016-11-24T02:53:58.310Z,0
2016-11-24T02:55:10.791Z,0
2016-11-24T02:56:54.941Z,0
2016-11-24T02:58:07.920Z,0
2016-11-24T02:59:20.352Z,0
2016-11-24T03:00:33.373Z,0
2016-11-24T03:02:17.059Z,0
2016-11-24T03:03:30.594Z,0
2016-11-24T03:04:43.070Z,0
2016-11-24T03:05:55.614Z,0
2016-11-24T03:07:08.200Z,0
2016-11-24T03:08:35.131Z,0
2016-11-24T03:09:47.657Z,0
2016-11-24T03:10:59.742Z,0
2016-11-24T03:12:13.293Z,0
2016-11-24T03:13:26.388Z,0
2016-11-24T03:14:38.866Z,0
2016-11-24T03:15:51.356Z,0
2016-11-24T03:17:04.588Z,0
2016-11-24T03:18:17.611Z,0
2016-11-24T03:19:28.989Z,0
2016-11-24T03:20:40.900Z,0
2016-11-24T03:21:52.836Z,0
2016-11-24T03:24:47.913Z,0
2016-11-24T03:26:00.934Z,0
2016-11-24T03:27:13.460Z,0
2016-11-24T03:28:26.409Z,0
2016-11-24T03:29:38.936Z,0
2016-11-24T03:30:51.987Z,0
2016-11-24T03:32:04.933Z,0
2016-11-24T03:33:17.389Z,0
2016-11-24T03:34:29.390Z,0
2016-11-24T03:35:42.974Z,0
2016-11-24T03:36:56.037Z,0
2016-11-24T03:38:09.064Z,0
2016-11-24T03:39:22.084Z,0
2016-11-24T03:40:34.088Z,0
2016-11-24T03:41:47.110Z,0
2016-11-24T03:43:00.099Z,0
2016-11-24T03:44:11.556Z,0
2016-11-24T03:45:55.649Z,0
2016-11-24T03:47:07.566Z,0
2016-11-24T03:48:20.589Z,0
2016-11-24T03:49:32.472Z,0
2016-11-24T03:51:16.612Z,0
2016-11-24T03:52:29.614Z,0
2016-11-24T03:53:42.600Z,0
2016-11-24T03:54:54.081Z,0
2016-11-24T03:56:07.088Z,0
2016-11-24T03:57:19.036Z,0
2016-11-24T03:58:32.009Z,0
2016-11-24T03:59:43.966Z,0
2016-11-24T04:00:55.867Z,0
2016-11-24T04:02:08.326Z,0
2016-11-24T04:03:20.885Z,0
2016-11-24T04:05:05.050Z,0
2016-11-24T04:06:16.574Z,0
2016-11-24T04:07:29.638Z,0
2016-11-24T04:08:42.136Z,0
2016-11-24T04:09:55.142Z,0
2016-11-24T04:11:08.201Z,0
2016-11-24T04:12:20.686Z,0
2016-11-24T04:13:33.132Z,0
2016-11-24T04:14:46.160Z,0
2016-11-24T04:15:58.602Z,0
2016-11-24T04:17:11.065Z,0
2016-11-24T04:18:24.102Z,0
2016-11-24T04:19:37.604Z,0
2016-11-24T04:20:51.225Z,0
2016-11-24T04:22:03.685Z,0
2016-11-24T04:25:01.950Z,0
2016-11-24T04:26:14.457Z,0
2016-11-24T04:27:27.980Z,0
2016-11-24T04:28:40.969Z,0
2016-11-24T04:29:52.394Z,0
2016-11-24T04:31:04.345Z,0
2016-11-24T04:32:16.303Z,0
2016-11-24T04:33:29.258Z,0
2016-11-24T04:34:41.222Z,0
2016-11-24T04:35:53.658Z,0
2016-11-24T04:37:06.655Z,0
2016-11-24T04:38:19.719Z,0
2016-11-24T04:39:33.301Z,0
2016-11-24T04:40:45.770Z,0
2016-11-24T04:41:57.721Z,0
2016-11-24T04:43:10.708Z,0
2016-11-24T04:44:23.213Z,0
2016-11-24T04:45:36.792Z,0
2016-11-24T04:48:34.406Z,0
2016-11-24T04:49:46.873Z,0
2016-11-24T04:51:00.395Z,0
2016-11-24T04:52:13.982Z,0
2016-11-24T04:53:26.422Z,0
2016-11-24T04:54:38.907Z,0
2016-11-24T04:55:51.879Z,0
2016-11-24T04:57:04.265Z,0
2016-11-24T04:58:16.752Z,0
2016-11-24T04:59:28.673Z,0
2016-11-24T05:00:41.665Z,0
2016-11-24T05:01:54.722Z,0
2016-11-24T05:03:07.212Z,0
2016-11-24T05:04:20.739Z,0
2016-11-24T05:05:33.749Z,0
2016-11-24T05:06:46.232Z,0
2016-11-24T05:07:59.724Z,0
2016-11-24T05:09:11.656Z,0
2016-11-24T05:10:24.605Z,0
2016-11-24T05:12:09.227Z,0
2016-11-24T05:13:21.691Z,0
2016-11-24T05:14:35.326Z,0
2016-11-24T05:15:47.831Z,0
2016-11-24T05:17:00.298Z,0
2016-11-24T05:18:12.212Z,0
2016-11-24T05:19:25.784Z,0
2016-11-24T05:20:38.288Z,0
2016-11-24T05:21:51.853Z,0
2016-11-24T05:23:04.825Z,0
2016-11-24T05:24:17.895Z,0
2016-11-24T05:25:30.957Z,0
2016-11-24T05:26:44.489Z,0
2016-11-24T05:27:57.482Z,0
2016-11-24T05:29:10.404Z,0
2016-11-24T05:30:23.461Z,0
2016-11-24T05:31:35.973Z,0
2016-11-24T05:32:48.937Z,0
2016-11-24T05:34:02.485Z,0
2016-11-24T05:35:14.463Z,0
2016-11-24T05:36:26.962Z,0
2016-11-24T05:37:39.455Z,0
2016-11-24T05:38:52.495Z,0
2016-11-24T05:41:48.618Z,0
2016-11-24T05:43:01.117Z,0
2016-11-24T05:44:13.605Z,0
2016-11-24T05:45:26.620Z,0
2016-11-24T05:46:38.579Z,0
2016-11-24T05:47:51.595Z,0
2016-11-24T05:49:04.651Z,0
2016-11-24T05:50:17.172Z,0
2016-11-24T05:51:29.594Z,0
2016-11-24T05:52:42.050Z,0
2016-11-24T05:53:54.540Z,0
2016-11-24T05:55:07.036Z,0
2016-11-24T05:56:20.072Z,0
2016-11-24T05:57:33.050Z,0
2016-11-24T05:58:46.056Z,0
2016-11-24T05:59:59.055Z,0
2016-11-24T06:01:12.570Z,0
2016-11-24T06:02:26.118Z,0
2016-11-24T06:03:38.120Z,0
2016-11-24T06:04:51.687Z,0
2016-11-24T06:06:04.222Z,0
2016-11-24T06:07:17.762Z,0
2016-11-24T06:08:31.344Z,0
2016-11-24T06:09:43.830Z,0
2016-11-24T06:10:56.827Z,0
2016-11-24T06:12:09.259Z,0
2016-11-24T06:13:21.752Z,0
2016-11-24T06:14:35.363Z,0
2016-11-24T06:15:48.892Z,0
2016-11-24T06:17:01.891Z,0
2016-11-24T06:18:14.935Z,0
2016-11-24T06:19:27.879Z,0
2016-11-24T06:20:40.318Z,0
2016-11-24T06:21:53.960Z,0
2016-11-24T06:23:07.022Z,0
2016-11-24T06:24:19.026Z,0
2016-11-24T06:25:31.500Z,0
2016-11-24T06:26:44.012Z,0
2016-11-24T06:27:56.029Z,0
2016-11-24T06:29:08.553Z,0
2016-11-24T06:30:22.159Z,0
2016-11-24T06:31:35.170Z,0
2016-11-24T06:32:47.688Z,0
2016-11-24T06:34:00.206Z,0
2016-11-24T06:35:13.279Z,0
2016-11-24T06:36:25.291Z,0
2016-11-24T06:37:38.322Z,0
2016-11-24T06:38:51.355Z,0
2016-11-24T06:40:05.003Z,0
2016-11-24T06:41:49.096Z,0
2016-11-24T06:43:02.093Z,0
2016-11-24T06:44:14.063Z,0
2016-11-24T06:45:58.200Z,0
2016-11-24T06:47:10.808Z,0
2016-11-24T06:48:22.324Z,0
2016-11-24T06:49:35.400Z,0
2016-11-24T06:50:47.391Z,0
2016-11-24T06:52:00.356Z,0
2016-11-24T06:53:12.350Z,0
2016-11-24T06:54:25.896Z,0
2016-11-24T06:55:38.437Z,0
2016-11-24T06:56:49.952Z,0
2016-11-24T06:58:02.440Z,0
2016-11-24T06:59:14.950Z,0
2016-11-24T07:00:26.419Z,0
2016-11-24T07:01:38.380Z,0
2016-11-24T07:02:50.904Z,0
2016-11-24T07:04:03.406Z,0
2016-11-24T07:05:15.952Z,0
2016-11-24T07:06:29.010Z,0
2016-11-24T07:07:41.040Z,0
2016-11-24T07:08:53.572Z,0
2016-11-24T07:10:07.158Z,0
2016-11-24T07:11:25.934Z,0
2016-11-24T07:12:38.419Z,0
2016-11-24T07:13:51.471Z,0
2016-11-24T07:15:04.010Z,0
2016-11-24T07:16:16.556Z,0
2016-11-24T07:17:29.091Z,0
2016-11-24T07:18:41.049Z,0
2016-11-24T07:19:53.563Z,0
2016-11-24T07:21:06.582Z,0
2016-11-24T07:22:19.071Z,0
2016-11-24T07:23:31.559Z,0
2016-11-24T07:24:45.157Z,0
2016-11-24T07:25:56.637Z,0
2016-11-24T07:27:08.648Z,0
2016-11-24T07:28:20.633Z,0
2016-11-24T07:29:33.654Z,0
2016-11-24T07:30:45.608Z,0
2016-11-24T07:31:57.063Z,0
2016-11-24T07:33:40.136Z,0
2016-11-24T07:34:52.636Z,0
2016-11-24T07:36:05.189Z,0
2016-11-24T07:37:17.744Z,0
2016-11-24T07:38:30.828Z,0
2016-11-24T07:39:43.389Z,0
2016-11-24T07:40:56.411Z,0
2016-11-24T07:42:08.895Z,0
2016-11-24T07:43:20.912Z,0
2016-11-24T07:44:32.421Z,0
2016-11-24T07:45:44.913Z,0
2016-11-24T07:46:56.865Z,4
2016-11-24T07:48:08.896Z,0
2016-11-24T07:49:21.394Z,4
2016-11-24T07:50:34.971Z,4
2016-11-24T07:51:47.451Z,4
2016-11-24T07:53:00.503Z,8
2016-11-24T07:54:13.529Z,8
2016-11-24T07:55:25.502Z,8
2016-11-24T07:56:37.524Z,12
2016-11-24T07:57:50.581Z,20
2016-11-24T07:59:03.150Z,24
2016-11-24T08:00:15.151Z,32
2016-11-24T08:01:27.116Z,40
2016-11-24T08:02:39.085Z,56
2016-11-24T08:03:51.047Z,68
2016-11-24T08:05:04.610Z,88
2016-11-24T08:06:17.699Z,108
2016-11-24T08:07:54.881Z,140
2016-11-24T08:09:07.874Z,168
2016-11-24T08:10:51.472Z,208
2016-11-24T08:12:03.990Z,244
2016-11-24T08:13:16.519Z,280
2016-11-24T08:14:29.557Z,312
2016-11-24T08:15:42.658Z,360
2016-11-24T08:16:55.186Z,404
2016-11-24T08:18:08.728Z,460
2016-11-24T08:19:21.801Z,520
2016-11-24T08:20:34.860Z,588
2016-11-24T08:21:48.491Z,656
2016-11-24T08:23:01.536Z,720
2016-11-24T08:24:45.183Z,812
2016-11-24T08:25:58.228Z,896
2016-11-24T08:27:11.247Z,984
2016-11-24T08:28:23.784Z,1096
2016-11-24T08:29:36.381Z,1216
2016-11-24T08:30:48.436Z,1320
2016-11-24T08:32:01.497Z,1412
2016-11-24T08:33:14.494Z,1492
2016-11-24T08:34:27.539Z,1600
2016-11-24T08:35:40.102Z,1752
2016-11-24T08:36:52.620Z,1892
2016-11-24T08:38:04.604Z,1976
2016-11-24T08:39:18.205Z,2080
2016-11-24T08:41:02.903Z,2068
2016-11-24T08:42:14.862Z,2172
2016-11-24T08:43:27.339Z,2288
2016-11-24T08:44:40.355Z,2480
2016-11-24T08:45:52.832Z,2624
2016-11-24T08:47:04.778Z,2788
2016-11-24T08:48:17.231Z,3064
2016-11-24T08:49:29.234Z,3420
2016-11-24T08:50:42.318Z,3836
2016-11-24T08:51:55.896Z,4800
2016-11-24T08:53:08.920Z,6432
2016-11-24T08:54:22.007Z,7532
2016-11-24T08:55:35.062Z,9976
2016-11-24T08:57:19.246Z,9020
2016-11-24T08:58:32.865Z,9268
2016-11-24T08:59:45.364Z,10220
2016-11-24T09:00:58.895Z,11504
2016-11-24T09:02:11.415Z,13536
2016-11-24T09:03:24.462Z,11364
2016-11-24T09:04:37.477Z,12896
2016-11-24T09:05:49.976Z,10404
2016-11-24T09:07:01.922Z,11340
2016-11-24T09:08:14.938Z,12340
2016-11-24T09:09:26.946Z,18720
2016-11-24T09:10:38.404Z,12976
2016-11-24T09:11:51.441Z,19904
2016-11-24T09:13:03.991Z,21152
2016-11-24T09:14:16.537Z,19168
2016-11-24T09:15:29.049Z,24896
2016-11-24T09:16:41.571Z,25696
2016-11-24T09:17:54.128Z,29568
2016-11-24T09:19:06.664Z,32992
2016-11-24T09:20:19.736Z,30240
2016-11-24T09:21:32.802Z,24352
2016-11-24T09:22:44.830Z,14944
2016-11-24T09:23:57.371Z,20352
2016-11-24T09:25:09.865Z,22880
2016-11-24T09:26:23.477Z,16320
2016-11-24T09:27:36.562Z,8604
2016-11-24T09:28:49.671Z,7420
2016-11-24T09:30:01.643Z,8024
2016-11-24T09:31:14.685Z,7008
2016-11-24T09:32:27.770Z,7200
2016-11-24T09:33:40.241Z,7628
2016-11-24T09:34:52.792Z,8176
2016-11-24T09:36:05.321Z,9384
2016-11-24T09:37:18.374Z,19072
2016-11-24T09:38:31.369Z,33728
2016-11-24T09:39:43.956Z,39776
2016-11-24T09:40:57.560Z,33920
2016-11-24T09:42:09.006Z,32896
2016-11-24T09:43:22.078Z,14132
2016-11-24T09:44:35.158Z,16224
2016-11-24T09:45:48.247Z,12200
2016-11-24T09:47:01.342Z,9328
2016-11-24T09:48:13.867Z,9268
2016-11-24T09:49:26.923Z,9364
2016-11-24T09:50:39.416Z,9536
2016-11-24T09:51:51.854Z,9624
2016-11-24T09:53:36.017Z,12256
2016-11-24T09:54:49.080Z,44320
2016-11-24T09:56:02.101Z,51200
2016-11-24T09:57:14.610Z,52576
2016-11-24T09:58:27.664Z,49984
2016-11-24T09:59:41.222Z,47296
2016-11-24T10:00:54.260Z,50688
2016-11-24T10:02:07.292Z,47584
2016-11-24T10:03:20.323Z,50848
2016-11-24T10:04:32.823Z,49056
2016-11-24T10:05:45.932Z,49888
2016-11-24T10:06:58.513Z,38272
2016-11-24T10:08:11.050Z,44256
2016-11-24T10:09:24.064Z,51584
2016-11-24T10:10:36.648Z,53632
2016-11-24T10:11:49.831Z,53216
2016-11-24T10:13:02.919Z,50560
2016-11-24T10:14:15.399Z,53984
2016-11-24T10:15:28.434Z,55360
2016-11-24T10:16:41.434Z,54912
2016-11-24T10:17:54.537Z,51296
2016-11-24T10:19:07.621Z,56032
2016-11-24T10:20:21.251Z,56320
2016-11-24T10:21:34.257Z,46016
2016-11-24T10:22:47.855Z,56608
2016-11-24T10:24:01.365Z,49440
2016-11-24T10:25:13.338Z,54784
2016-11-24T10:26:26.964Z,51744
2016-11-24T10:27:39.472Z,47008
2016-11-24T10:28:52.478Z,45152
2016-11-24T10:30:05.616Z,33312
2016-11-24T10:31:17.608Z,29440
2016-11-24T10:33:01.240Z,57248
2016-11-24T10:34:14.321Z,54400
2016-11-24T10:35:27.415Z,57344
2016-11-24T10:36:40.033Z,57312
2016-11-24T10:37:52.608Z,59264
2016-11-24T10:39:05.665Z,55392
2016-11-24T10:40:18.227Z,55744
2016-11-24T10:41:31.304Z,56928
2016-11-24T10:42:43.313Z,56896
2016-11-24T10:43:56.835Z,54496
2016-11-24T10:45:09.390Z,55648
2016-11-24T10:46:22.416Z,55744
2016-11-24T10:47:35.956Z,53728
2016-11-24T10:48:49.518Z,53760
2016-11-24T10:50:03.079Z,58720
2016-11-24T10:51:15.701Z,56608
2016-11-24T10:52:28.818Z,52224
2016-11-24T10:53:41.856Z,51136
2016-11-24T10:54:55.425Z,51584
2016-11-24T10:56:07.956Z,52832
2016-11-24T10:57:21.013Z,53504
2016-11-24T10:58:33.576Z,53376
2016-11-24T10:59:46.660Z,55968
2016-11-24T11:00:59.195Z,58400
2016-11-24T11:02:12.244Z,59168
2016-11-24T11:03:24.741Z,56128
2016-11-24T11:04:37.837Z,54368
2016-11-24T11:05:50.896Z,55232
2016-11-24T11:07:03.928Z,55936
2016-11-24T11:08:16.994Z,50048
2016-11-24T11:09:29.550Z,55328
2016-11-24T11:10:43.106Z,55904
2016-11-24T11:11:56.682Z,54368
2016-11-24T11:13:09.236Z,54912
2016-11-24T11:14:22.308Z,57824
2016-11-24T11:15:35.375Z,58528
2016-11-24T11:16:48.490Z,55712
2016-11-24T11:18:01.007Z,57632
2016-11-24T11:19:14.634Z,55840
2016-11-24T11:20:27.213Z,55008
2016-11-24T11:21:40.258Z,52160
2016-11-24T11:22:52.224Z,52096
2016-11-24T11:24:05.852Z,53376
2016-11-24T11:25:18.420Z,53152
2016-11-24T11:26:31.439Z,53152
2016-11-24T11:28:15.619Z,45920
2016-11-24T11:29:28.729Z,50560
2016-11-24T11:30:41.252Z,50752
2016-11-24T11:31:53.818Z,49952
2016-11-24T11:33:07.401Z,48928
2016-11-24T11:34:21.011Z,50368
2016-11-24T11:35:34.658Z,50496
2016-11-24T11:36:47.184Z,48960
2016-11-24T11:37:58.696Z,47040
2016-11-24T11:39:10.677Z,47616
2016-11-24T11:40:23.736Z,49216
2016-11-24T11:41:37.356Z,46368
2016-11-24T11:42:49.836Z,39776
2016-11-24T11:44:02.406Z,36864
2016-11-24T11:46:57.992Z,31872
2016-11-24T11:48:10.547Z,37728
2016-11-24T11:49:24.125Z,35680
2016-11-24T11:50:36.595Z,50208
2016-11-24T11:51:48.047Z,53024
2016-11-24T11:53:01.153Z,47936
2016-11-24T11:54:14.205Z,47776
2016-11-24T11:55:27.376Z,47872
2016-11-24T11:56:40.984Z,48704
2016-11-24T11:57:53.560Z,49536
2016-11-24T11:59:06.066Z,44064
2016-11-24T12:00:19.142Z,31616
2016-11-24T12:01:31.150Z,23232
2016-11-24T12:02:43.171Z,19808
2016-11-24T12:03:55.725Z,29760
2016-11-24T12:05:07.745Z,43264
2016-11-24T12:06:20.810Z,42080
2016-11-24T12:07:34.100Z,42112
2016-11-24T12:08:46.645Z,42624
2016-11-24T12:09:58.153Z,39072
2016-11-24T12:11:11.177Z,34656
2016-11-24T12:12:24.040Z,31968
2016-11-24T12:13:37.082Z,35104
2016-11-24T12:14:49.621Z,35680
2016-11-24T12:16:02.161Z,36864
2016-11-24T12:17:14.669Z,37344
2016-11-24T12:18:26.132Z,38560
2016-11-24T12:19:38.719Z,36224
2016-11-24T12:20:51.821Z,35392
2016-11-24T12:22:04.407Z,36928
2016-11-24T12:23:16.956Z,18272
2016-11-24T12:24:30.011Z,34368
2016-11-24T12:25:43.121Z,35584
2016-11-24T12:26:55.628Z,33568
2016-11-24T12:28:08.155Z,32032
2016-11-24T12:29:20.658Z,30912
2016-11-24T12:30:34.262Z,30880
2016-11-24T12:31:47.351Z,32864
2016-11-24T12:33:00.454Z,33856
2016-11-24T12:34:12.533Z,31232
2016-11-24T12:35:25.609Z,33248
2016-11-24T12:36:38.713Z,29760
2016-11-24T12:37:51.735Z,31360
2016-11-24T12:39:04.903Z,30240
2016-11-24T12:40:17.370Z,30976
2016-11-24T12:41:30.382Z,31520
2016-11-24T12:42:43.432Z,29728
2016-11-24T12:43:55.437Z,28960
2016-11-24T12:45:07.980Z,26528
2016-11-24T12:46:20.006Z,25984
2016-11-24T12:49:18.319Z,28544
2016-11-24T12:50:31.416Z,27328
2016-11-24T12:51:43.979Z,26368
2016-11-24T12:52:56.529Z,26304
2016-11-24T12:54:10.083Z,26720
2016-11-24T12:55:22.539Z,27072
2016-11-24T12:56:36.065Z,26688
2016-11-24T12:57:49.614Z,26624
2016-11-24T12:59:02.642Z,26368
2016-11-24T13:00:15.220Z,21888
2016-11-24T13:01:59.949Z,24576
2016-11-24T13:03:11.937Z,22432
2016-11-24T13:04:23.956Z,23872
2016-11-24T13:05:35.944Z,24288
2016-11-24T13:06:48.976Z,24416
2016-11-24T13:08:00.424Z,23872
2016-11-24T13:09:12.957Z,22304
2016-11-24T13:10:25.982Z,12920
2016-11-24T13:11:38.467Z,13128
2016-11-24T13:12:50.929Z,14424
2016-11-24T13:14:03.449Z,14976
2016-11-24T13:15:17.067Z,21920
2016-11-24T13:16:30.633Z,22496
2016-11-24T13:17:43.631Z,15604
2016-11-24T13:18:56.103Z,13400
2016-11-24T13:20:08.596Z,12232
2016-11-24T13:21:21.070Z,12984
2016-11-24T13:22:34.602Z,15896
2016-11-24T13:23:47.044Z,20000
2016-11-24T13:25:00.075Z,20416
2016-11-24T13:26:13.026Z,20864
2016-11-24T13:27:25.558Z,20736
2016-11-24T13:28:37.565Z,20576
2016-11-24T13:29:51.173Z,14732
2016-11-24T13:31:04.793Z,18240
2016-11-24T13:32:17.828Z,17824
2016-11-24T13:33:29.782Z,17280
2016-11-24T13:34:42.288Z,18976
2016-11-24T13:35:54.249Z,18624
2016-11-24T13:37:07.296Z,19360
2016-11-24T13:38:19.754Z,19616
2016-11-24T13:39:32.780Z,19776
2016-11-24T13:40:45.925Z,19552
2016-11-24T13:41:58.952Z,19200
2016-11-24T13:43:11.478Z,19008
2016-11-24T13:44:24.530Z,18624
2016-11-24T13:45:37.006Z,18976
2016-11-24T13:46:49.503Z,17984
2016-11-24T13:48:02.478Z,19648
2016-11-24T13:49:16.021Z,20224
2016-11-24T13:50:29.615Z,20736
2016-11-24T13:51:43.234Z,16832
2016-11-24T13:52:56.354Z,15808
2016-11-24T13:54:09.376Z,15904
2016-11-24T13:55:22.494Z,18848
2016-11-24T13:56:36.067Z,19840
2016-11-24T13:57:48.517Z,19840
2016-11-24T13:59:01.573Z,19104
2016-11-24T14:00:14.665Z,17216
2016-11-24T14:01:27.192Z,13152
2016-11-24T14:02:39.701Z,12724
2016-11-24T14:03:52.739Z,13692
2016-11-24T14:05:05.708Z,17888
2016-11-24T14:06:18.730Z,18656
2016-11-24T14:07:31.773Z,18400
2016-11-24T14:08:43.233Z,18048
2016-11-24T14:09:55.290Z,16608
2016-11-24T14:11:08.330Z,17024
2016-11-24T14:12:21.403Z,15296
2016-11-24T14:13:33.885Z,17856
2016-11-24T14:14:46.425Z,17920
2016-11-24T14:15:59.958Z,18400
2016-11-24T14:17:12.471Z,16384
2016-11-24T14:18:25.969Z,13336
2016-11-24T14:19:38.022Z,18272
2016-11-24T14:20:51.067Z,18496
2016-11-24T14:22:04.687Z,18912
2016-11-24T14:23:17.740Z,18304
2016-11-24T14:24:31.359Z,17984
2016-11-24T14:25:44.912Z,17216
2016-11-24T14:26:57.938Z,17120
2016-11-24T14:28:10.467Z,17152
2016-11-24T14:29:23.010Z,16448
2016-11-24T14:30:36.015Z,17664
2016-11-24T14:31:48.507Z,17152
2016-11-24T14:33:01.504Z,16480
2016-11-24T14:34:15.045Z,15584
2016-11-24T14:35:28.582Z,15776
2016-11-24T14:36:41.616Z,15776
2016-11-24T14:37:54.676Z,17184
2016-11-24T14:39:06.650Z,16928
2016-11-24T14:40:19.624Z,15904
2016-11-24T14:41:32.679Z,14412
2016-11-24T14:42:44.677Z,12552
2016-11-24T14:43:57.180Z,11584
2016-11-24T14:45:10.748Z,10148
2016-11-24T14:46:23.823Z,10416
2016-11-24T14:47:36.849Z,11336
2016-11-24T14:48:49.854Z,12500
2016-11-24T14:50:03.407Z,12404
2016-11-24T14:51:16.527Z,12760
2016-11-24T14:52:28.488Z,12908
2016-11-24T14:53:41.015Z,12788
2016-11-24T14:54:53.523Z,12768
2016-11-24T14:56:06.575Z,13180
2016-11-24T14:57:19.146Z,12796
2016-11-24T14:58:31.137Z,12820
2016-11-24T14:59:44.803Z,13876
2016-11-24T15:00:57.264Z,12864
2016-11-24T15:02:10.872Z,12640
2016-11-24T15:03:23.358Z,13804
2016-11-24T15:04:36.431Z,14160
2016-11-24T15:05:48.901Z,14476
2016-11-24T15:07:01.960Z,14612
2016-11-24T15:08:14.475Z,15072
2016-11-24T15:09:28.040Z,14752
2016-11-24T15:10:40.010Z,14680
2016-11-24T15:11:53.015Z,15040
2016-11-24T15:13:06.096Z,15008
2016-11-24T15:14:18.579Z,14540
2016-11-24T15:15:31.649Z,14148
2016-11-24T15:16:45.260Z,14152
2016-11-24T15:17:58.253Z,13800
2016-11-24T15:19:11.797Z,12472
2016-11-24T15:20:24.854Z,12088
2016-11-24T15:21:38.443Z,12740
2016-11-24T15:22:50.960Z,11544
2016-11-24T15:24:03.960Z,11416
2016-11-24T15:25:16.494Z,11476
2016-11-24T15:26:29.506Z,12248
2016-11-24T15:27:42.570Z,13180
2016-11-24T15:28:55.669Z,11408
2016-11-24T15:30:07.655Z,11472
2016-11-24T15:31:21.197Z,11340
2016-11-24T15:32:34.716Z,11696
2016-11-24T15:33:47.725Z,11716
2016-11-24T15:35:00.789Z,11448
2016-11-24T15:36:13.867Z,11512
2016-11-24T15:37:26.369Z,11752
2016-11-24T15:38:38.857Z,11932
2016-11-24T15:40:23.533Z,12912
2016-11-24T15:41:36.508Z,13676
2016-11-24T15:42:48.958Z,13524
2016-11-24T15:44:01.425Z,13540
2016-11-24T15:45:13.984Z,13780
2016-11-24T15:46:27.030Z,13700
2016-11-24T15:47:39.532Z,13740
2016-11-24T15:48:51.486Z,12372
2016-11-24T15:50:05.034Z,13188
2016-11-24T15:51:18.057Z,12568
2016-11-24T15:52:30.570Z,12168
2016-11-24T15:53:44.151Z,10116
2016-11-24T15:54:57.185Z,9756
2016-11-24T15:56:10.241Z,9816
2016-11-24T15:57:23.799Z,9768
2016-11-24T15:58:36.811Z,9876
2016-11-24T15:59:50.358Z,10184
2016-11-24T16:01:03.357Z,10216
2016-11-24T16:02:16.352Z,10812
2016-11-24T16:03:28.915Z,11104
2016-11-24T16:04:42.489Z,11220
2016-11-24T16:05:54.511Z,10728
2016-11-24T16:07:05.946Z,10504
2016-11-24T16:08:18.473Z,10548
2016-11-24T16:09:31.036Z,10444
2016-11-24T16:10:44.075Z,9968
2016-11-24T16:11:57.667Z,9700
2016-11-24T16:13:10.148Z,9932
2016-11-24T16:14:23.695Z,9964
2016-11-24T16:15:36.258Z,9928
2016-11-24T16:16:48.786Z,9524
2016-11-24T16:18:02.444Z,9316
2016-11-24T16:19:15.503Z,9396
2016-11-24T16:20:28.595Z,9488
2016-11-24T16:21:40.509Z,9348
2016-11-24T16:22:52.990Z,9084
2016-11-24T16:24:06.098Z,9732
2016-11-24T16:25:19.177Z,10084
2016-11-24T16:26:31.663Z,9824
2016-11-24T16:27:44.874Z,9976
2016-11-24T16:28:57.886Z,9876
2016-11-24T16:30:10.863Z,9484
2016-11-24T16:31:23.912Z,9500
2016-11-24T16:32:36.409Z,9316
2016-11-24T16:33:49.385Z,9608
2016-11-24T16:35:02.467Z,9456
2016-11-24T16:36:15.002Z,8908
2016-11-24T16:37:28.036Z,8712
2016-11-24T16:38:41.029Z,9164
2016-11-24T16:39:54.545Z,9892
2016-11-24T16:41:08.052Z,11056
2016-11-24T16:42:21.049Z,10480
2016-11-24T16:43:34.103Z,10232
2016-11-24T16:44:47.162Z,9812
2016-11-24T16:45:59.146Z,9332
2016-11-24T16:47:12.175Z,9012
2016-11-24T16:48:24.652Z,9044
2016-11-24T16:49:37.165Z,9044
2016-11-24T16:50:49.132Z,9124
2016-11-24T16:52:02.676Z,9564
2016-11-24T16:53:15.678Z,10028
2016-11-24T16:54:29.227Z,10408
2016-11-24T16:55:41.744Z,10616
2016-11-24T16:56:55.320Z,10284
2016-11-24T16:58:08.909Z,9704
2016-11-24T16:59:21.964Z,9832
2016-11-24T17:00:34.956Z,9784
2016-11-24T17:01:48.001Z,9568
2016-11-24T17:03:01.078Z,8940
2016-11-24T17:04:13.563Z,8268
2016-11-24T17:05:26.633Z,8008
2016-11-24T17:06:40.175Z,7764
2016-11-24T17:07:53.246Z,8416
2016-11-24T17:09:06.299Z,6764
2016-11-24T17:10:19.307Z,6720
2016-11-24T17:11:32.333Z,6948
2016-11-24T17:12:43.795Z,7652